Time;durP1;ratioP1;P1;durP2;ratioP2;P2;SDS_P1;SDS_P2;PMS_P1;PMS_P2;Temp;Humidity;BMP_temperature;BMP_pressure;BME280_temperature;BME280_humidity;BME280_pressure;Samples;Min_cycle;Max_cycle;Signal;HPM_P1;HPM_P2
2022/03/03 00:00:10;;;;;;;119.83;40.57;;;1.00;56.80;;;;;;5100934;28;20103;-87
2022/03/03 00:02:35;;;;;;;113.83;39.83;;;1.00;56.80;;;;;;5106633;28;20499;-86
2022/03/03 00:05:02;;;;;;;116.97;37.35;;;1.00;56.80;;;;;;5099697;28;20028;-86
2022/03/03 00:07:27;;;;;;;116.07;37.87;;;1.00;56.80;;;;;;5102813;28;20027;-84
2022/03/03 00:09:53;;;;;;;113.28;39.17;;;1.10;56.80;;;;;;5120871;27;20381;-87
2022/03/03 00:12:18;;;;;;;109.95;39.58;;;1.00;56.80;;;;;;5123044;27;20023;-87
2022/03/03 00:14:45;;;;;;;109.93;37.58;;;1.00;56.80;;;;;;5124211;27;20443;-88
2022/03/03 00:17:11;;;;;;;119.83;40.23;;;1.10;56.80;;;;;;5121343;27;20055;-87
2022/03/03 00:19:37;;;;;;;104.78;38.75;;;1.10;56.90;;;;;;5096701;28;20039;-86
2022/03/03 00:22:03;;;;;;;106.00;40.97;;;1.10;56.90;;;;;;5116129;27;20060;-86
2022/03/03 00:24:28;;;;;;;;;;;1.10;56.90;;;;;;5101582;28;20067;-86
2022/03/03 00:26:54;;;;;;;109.50;38.17;;;1.20;56.80;;;;;;5103300;28;19907;-85
2022/03/03 00:29:19;;;;;;;106.95;38.33;;;1.20;56.50;;;;;;5126430;28;20045;-87
2022/03/03 00:31:45;;;;;;;101.63;38.13;;;1.20;56.60;;;;;;5122098;28;20042;-87
2022/03/03 00:34:11;;;;;;;110.78;39.13;;;1.20;56.80;;;;;;5120719;28;20089;-87
2022/03/03 00:36:36;;;;;;;119.60;38.67;;;1.30;56.90;;;;;;5123794;28;20024;-87
2022/03/03 00:39:03;;;;;;;102.85;40.28;;;1.20;56.90;;;;;;5121948;28;20031;-86
2022/03/03 00:41:29;;;;;;;112.63;40.73;;;1.20;57.00;;;;;;5104371;28;20097;-87
2022/03/03 00:43:55;;;;;;;107.10;39.08;;;1.30;57.10;;;;;;5118315;28;20054;-87
2022/03/03 00:46:21;;;;;;;118.40;42.73;;;1.20;57.10;;;;;;5118859;27;20044;-87
2022/03/03 00:48:47;;;;;;;110.20;40.90;;;1.30;57.10;;;;;;5126587;27;20020;-87
2022/03/03 00:51:12;;;;;;;115.80;40.70;;;1.20;57.10;;;;;;5109056;28;20088;-87
2022/03/03 00:53:38;;;;;;;117.70;41.97;;;1.30;57.20;;;;;;5124156;27;20064;-86
2022/03/03 00:56:04;;;;;;;115.25;41.22;;;1.30;57.20;;;;;;5127425;27;20346;-87
2022/03/03 00:58:30;;;;;;;119.50;41.23;;;1.30;57.20;;;;;;5103413;28;20483;-87
2022/03/03 01:00:56;;;;;;;114.53;41.30;;;1.30;57.30;;;;;;5110667;28;20024;-87
2022/03/03 01:03:22;;;;;;;124.13;42.13;;;1.30;57.30;;;;;;5120170;27;20012;-88
2022/03/03 01:05:47;;;;;;;111.15;42.13;;;1.30;57.40;;;;;;5123147;27;20032;-86
2022/03/03 01:08:13;;;;;;;115.63;41.60;;;1.30;57.50;;;;;;5121716;27;20051;-87
2022/03/03 01:10:40;;;;;;;115.03;41.67;;;1.30;57.50;;;;;;5123507;27;20016;-87
2022/03/03 01:13:06;;;;;;;121.47;43.37;;;1.30;57.50;;;;;;5102605;28;20035;-87
2022/03/03 01:15:32;;;;;;;123.03;42.63;;;1.30;57.60;;;;;;5109002;28;20445;-88
2022/03/03 01:17:58;;;;;;;;;;;1.30;57.60;;;;;;5117886;27;20020;-88
2022/03/03 01:20:24;;;;;;;101.30;40.20;;;1.30;57.60;;;;;;5108192;28;20418;-87
2022/03/03 01:22:50;;;;;;;98.32;40.05;;;1.30;57.20;;;;;;5122076;27;20076;-88
2022/03/03 01:25:15;;;;;;;113.70;41.22;;;1.30;57.40;;;;;;5106848;28;20031;-87
2022/03/03 01:27:41;;;;;;;110.40;39.75;;;1.30;57.50;;;;;;5112384;28;20023;-87
2022/03/03 01:30:08;;;;;;;103.20;39.55;;;1.30;57.60;;;;;;5112112;28;20024;-86
2022/03/03 01:32:33;;;;;;;106.90;40.37;;;1.30;57.60;;;;;;5102678;28;20109;-86
2022/03/03 01:35:00;;;;;;;110.97;41.13;;;1.30;57.70;;;;;;5121069;27;20059;-87
2022/03/03 01:37:25;;;;;;;;;;;1.30;57.70;;;;;;5108142;28;20046;-86
2022/03/03 01:39:51;;;;;;;110.60;39.63;;;1.30;57.70;;;;;;5106363;28;19908;-86
2022/03/03 01:42:18;;;;;;;101.65;38.92;;;1.30;57.30;;;;;;5122292;27;20031;-87
2022/03/03 01:44:45;;;;;;;119.23;41.37;;;1.30;57.50;;;;;;5110317;28;20066;-86
2022/03/03 01:47:18;;;;;;;121.93;43.30;;;1.30;57.60;;;;;;5106951;28;20530;-87
2022/03/03 01:49:44;;;;;;;123.97;44.83;;;1.30;57.90;;;;;;5104364;28;20035;-87
2022/03/03 01:52:10;;;;;;;123.70;45.23;;;1.30;57.90;;;;;;5105726;28;20026;-87
2022/03/03 01:54:36;;;;;;;121.78;45.20;;;1.30;58.00;;;;;;5129855;27;20012;-87
2022/03/03 01:57:02;;;;;;;112.18;42.95;;;1.30;58.10;;;;;;5100136;28;20031;-86
2022/03/03 01:59:28;;;;;;;116.22;43.00;;;1.30;58.20;;;;;;5126311;27;20024;-87
2022/03/03 02:01:54;;;;;;;115.68;44.22;;;1.20;58.30;;;;;;5104522;28;20039;-87
2022/03/03 02:04:20;;;;;;;116.80;43.83;;;1.20;58.30;;;;;;5106650;28;20024;-87
2022/03/03 02:06:46;;;;;;;119.47;43.63;;;1.20;58.40;;;;;;5122316;27;20496;-87
2022/03/03 02:09:11;;;;;;;115.47;42.72;;;1.20;58.50;;;;;;5121479;27;20023;-86
2022/03/03 02:11:37;;;;;;;123.25;44.63;;;1.20;58.50;;;;;;5116451;27;20562;-87
2022/03/03 02:14:04;;;;;;;112.50;44.85;;;1.20;58.60;;;;;;5112395;28;20024;-87
2022/03/03 02:16:30;;;;;;;105.13;40.47;;;1.20;58.70;;;;;;5106711;28;20016;-86
2022/03/03 02:18:56;;;;;;;123.27;44.43;;;1.20;58.70;;;;;;5106838;28;20357;-85
2022/03/03 02:21:22;;;;;;;122.38;42.65;;;1.20;58.80;;;;;;5118413;27;20077;-88
2022/03/03 02:23:48;;;;;;;113.47;42.57;;;1.20;58.80;;;;;;5121481;27;20564;-87
2022/03/03 02:26:18;;;;;;;116.88;41.78;;;1.20;58.80;;;;;;5123378;27;20058;-87
2022/03/03 02:28:48;;;;;;;104.87;40.13;;;1.20;59.00;;;;;;5103066;28;20032;-86
2022/03/03 02:31:14;;;;;;;112.50;41.50;;;1.20;58.90;;;;;;5105510;28;20039;-87
2022/03/03 02:33:40;;;;;;;122.28;42.15;;;1.20;58.90;;;;;;5126522;27;20032;-88
2022/03/03 02:36:14;;;;;;;112.93;41.25;;;1.20;58.90;;;;;;5118620;27;20016;-87
2022/03/03 02:38:40;;;;;;;109.50;39.93;;;1.10;59.00;;;;;;5105748;28;20478;-87
2022/03/03 02:41:05;;;;;;;106.28;39.80;;;1.20;58.90;;;;;;5126618;27;20132;-86
2022/03/03 02:43:31;;;;;;;106.90;40.45;;;1.20;58.90;;;;;;5118465;27;20472;-87
2022/03/03 02:45:56;;;;;;;114.75;41.35;;;1.10;58.90;;;;;;5119188;27;20028;-87
2022/03/03 02:48:22;;;;;;;107.78;40.03;;;1.20;58.90;;;;;;5121120;27;20012;-87
2022/03/03 02:50:47;;;;;;;111.00;41.13;;;1.20;58.90;;;;;;5124176;27;20028;-88
2022/03/03 02:53:13;;;;;;;105.90;39.35;;;1.20;58.90;;;;;;5121346;27;20495;-87
2022/03/03 02:55:38;;;;;;;104.65;41.15;;;1.20;58.90;;;;;;5117965;27;20034;-87
2022/03/03 02:58:05;;;;;;;103.72;39.95;;;1.20;58.90;;;;;;5120880;27;20020;-87
2022/03/03 03:00:38;;;;;;;108.30;41.13;;;1.20;58.90;;;;;;5101672;28;20030;-87
2022/03/03 03:03:04;;;;;;;109.50;40.03;;;1.20;59.00;;;;;;5100063;28;20538;-86
2022/03/03 03:05:30;;;;;;;119.90;40.53;;;1.10;59.10;;;;;;5105566;28;20033;-88
2022/03/03 03:07:56;;;;;;;114.30;41.03;;;1.00;59.20;;;;;;5109016;28;20031;-87
2022/03/03 03:10:21;;;;;;;106.75;39.95;;;1.00;59.20;;;;;;5120640;27;20028;-87
2022/03/03 03:12:47;;;;;;;108.03;41.42;;;0.90;59.30;;;;;;5120407;27;20036;-86
2022/03/03 03:15:12;;;;;;;113.38;41.00;;;0.80;59.40;;;;;;5124514;27;20144;-87
2022/03/03 03:17:39;;;;;;;113.97;41.35;;;0.80;59.60;;;;;;5118354;27;20073;-87
2022/03/03 03:20:09;;;;;;;90.53;36.97;;;0.60;59.80;;;;;;5117531;27;20100;-87
2022/03/03 03:22:36;;;;;;;94.30;36.40;;;0.50;59.90;;;;;;5098098;28;20107;-87
2022/03/03 03:25:04;;;;;;;95.43;38.00;;;0.40;60.10;;;;;;5106193;28;20097;-87
2022/03/03 03:27:29;;;;;;;96.73;37.03;;;0.20;60.30;;;;;;5100674;28;20036;-88
2022/03/03 03:29:55;;;;;;;98.53;37.92;;;0.10;60.50;;;;;;5104704;28;20028;-87
2022/03/03 03:32:20;;;;;;;95.20;37.75;;;0.00;60.70;;;;;;5121268;27;20023;-87
2022/03/03 03:34:46;;;;;;;89.90;34.38;;;0.00;60.80;;;;;;5118327;27;20365;-87
2022/03/03 03:37:11;;;;;;;97.80;38.92;;;-3276.70;61.00;;;;;;5121217;27;20030;-85
2022/03/03 03:39:37;;;;;;;107.85;38.97;;;-3276.70;61.10;;;;;;5120416;27;20030;-88
2022/03/03 03:42:03;;;;;;;104.03;39.25;;;-3276.60;61.20;;;;;;5121105;27;20058;-87
2022/03/03 03:44:29;;;;;;;107.40;38.38;;;-3276.40;61.30;;;;;;5104596;28;20039;-88
2022/03/03 03:46:55;;;;;;;92.22;36.65;;;-3276.30;61.50;;;;;;5119741;27;20036;-87
2022/03/03 03:49:20;;;;;;;;;;;-3276.30;61.60;;;;;;5102075;28;20016;-87
2022/03/03 03:51:46;;;;;;;86.93;33.20;;;-3276.10;61.70;;;;;;5105006;28;20379;-86
2022/03/03 03:54:11;;;;;;;99.75;35.28;;;-3276.10;61.30;;;;;;5118118;27;20046;-87
2022/03/03 03:56:37;;;;;;;96.28;35.42;;;-3276.00;61.60;;;;;;5127516;27;20051;-87
2022/03/03 03:59:03;;;;;;;98.70;35.85;;;-3276.00;61.70;;;;;;5123395;27;20006;-88
2022/03/03 04:01:31;;;;;;;102.82;35.67;;;-3275.90;61.80;;;;;;5122524;27;20012;-87
2022/03/03 04:03:56;;;;;;;98.10;34.03;;;-3275.80;61.90;;;;;;5102162;28;20054;-86
2022/03/03 04:06:22;;;;;;;96.75;34.22;;;-3275.70;62.00;;;;;;5104165;28;20024;-87
2022/03/03 04:08:48;;;;;;;94.20;33.17;;;-3275.70;62.20;;;;;;5121925;27;20031;-87
2022/03/03 04:11:13;;;;;;;99.05;34.28;;;-3275.70;62.20;;;;;;5103889;28;20040;-87
2022/03/03 04:13:39;;;;;;;88.65;31.25;;;-3275.60;62.30;;;;;;5118565;27;20023;-87
2022/03/03 04:16:05;;;;;;;;;;;-3275.60;62.40;;;;;;5123252;27;20016;-86
2022/03/03 04:18:31;;;;;;;78.63;30.80;;;-3275.50;62.30;;;;;;5108483;28;20309;-85
2022/03/03 04:20:56;;;;;;;94.80;32.92;;;-3275.50;61.90;;;;;;5100518;28;20016;-86
2022/03/03 04:23:22;;;;;;;91.68;32.58;;;-3275.40;62.10;;;;;;5104196;28;20518;-87
2022/03/03 04:25:47;;;;;;;81.25;31.52;;;-3275.40;62.30;;;;;;5116198;28;20020;-87
2022/03/03 04:28:13;;;;;;;91.85;33.53;;;-3275.30;62.30;;;;;;5105099;28;20047;-87
2022/03/03 04:30:39;;;;;;;93.47;33.60;;;-3275.30;62.50;;;;;;5118001;28;20069;-86
2022/03/03 04:33:04;;;;;;;84.88;33.90;;;-3275.20;62.50;;;;;;5126093;28;20034;-87
2022/03/03 04:35:30;;;;;;;92.63;32.20;;;-3275.20;62.60;;;;;;5116723;28;20103;-85
2022/03/03 04:37:55;;;;;;;78.38;29.85;;;-3275.20;62.60;;;;;;5121217;28;20019;-88
2022/03/03 04:40:21;;;;;;;84.75;34.25;;;-3275.10;62.70;;;;;;5123145;28;20028;-88
2022/03/03 04:42:47;;;;;;;103.40;34.20;;;-3275.10;62.80;;;;;;5113642;27;20119;-88
2022/03/03 04:45:13;;;;;;;90.90;33.15;;;-3275.00;62.80;;;;;;5120071;28;20035;-87
2022/03/03 04:47:39;;;;;;;91.82;32.28;;;-3275.00;62.90;;;;;;5120805;28;20119;-88
2022/03/03 04:50:05;;;;;;;88.45;32.03;;;-3275.00;62.90;;;;;;5124326;28;20032;-88
2022/03/03 04:52:31;;;;;;;84.10;31.50;;;-3274.90;63.00;;;;;;5105081;28;20020;-88
2022/03/03 04:54:56;;;;;;;;;;;-3274.90;63.00;;;;;;5121460;28;20022;-87
2022/03/03 04:57:22;;;;;;;87.07;31.13;;;-3274.90;63.10;;;;;;5106538;28;20356;-88
2022/03/03 04:59:47;;;;;;;;;;;-3274.80;62.70;;;;;;5122035;28;20031;-87
2022/03/03 05:02:13;;;;;;;85.47;30.60;;;-3274.80;62.80;;;;;;5105877;28;19908;-87
2022/03/03 05:04:38;;;;;;;;;;;-3274.80;62.50;;;;;;5128718;28;20115;-87
2022/03/03 05:07:04;;;;;;;86.53;31.60;;;-3274.70;62.80;;;;;;5104573;28;19930;-86
2022/03/03 05:09:30;;;;;;;93.32;33.08;;;-3274.70;62.50;;;;;;5096487;28;20484;-88
2022/03/03 05:11:57;;;;;;;86.00;32.17;;;-3274.70;62.70;;;;;;5124184;28;20676;-87
2022/03/03 05:14:23;;;;;;;94.43;33.30;;;-3274.50;62.90;;;;;;5122134;28;20020;-87
2022/03/03 05:16:48;;;;;;;;;;;-3274.50;63.00;;;;;;5115872;28;20046;-88
2022/03/03 05:19:14;;;;;;;93.13;30.90;;;-3274.50;63.20;;;;;;5103255;28;19919;-88
2022/03/03 05:21:39;;;;;;;78.22;30.40;;;-3274.40;62.90;;;;;;5126779;28;20024;-87
2022/03/03 05:24:05;;;;;;;107.90;34.25;;;-3274.30;63.00;;;;;;5102794;28;20423;-87
2022/03/03 05:26:31;;;;;;;;;;;-3274.30;63.10;;;;;;5122610;28;20016;-88
2022/03/03 05:28:56;;;;;;;78.87;29.80;;;-3274.20;63.30;;;;;;5100610;28;19955;-88
2022/03/03 05:31:22;;;;;;;85.82;33.10;;;-3274.20;63.00;;;;;;5121581;27;20019;-87
2022/03/03 05:33:47;;;;;;;;;;;-3274.20;63.20;;;;;;5125720;27;20465;-88
2022/03/03 05:36:13;;;;;;;100.27;34.13;;;-3274.20;63.40;;;;;;5102862;28;19915;-89
2022/03/03 05:38:39;;;;;;;;;;;-3274.20;63.20;;;;;;5120274;27;20027;-87
2022/03/03 05:41:05;;;;;;;95.07;31.47;;;-3274.20;63.30;;;;;;5106385;28;20383;-88
2022/03/03 05:43:31;;;;;;;103.60;37.27;;;-3274.20;63.20;;;;;;5103593;28;20077;-88
2022/03/03 05:45:57;;;;;;;;;;;-3274.20;63.30;;;;;;5118259;27;20423;-88
2022/03/03 05:48:25;;;;;;;107.93;38.63;;;-3274.20;63.40;;;;;;5107658;28;19912;-87
2022/03/03 05:50:52;;;;;;;100.87;38.30;;;-3274.30;63.20;;;;;;5099677;28;20033;-88
2022/03/03 05:53:21;;;;;;;95.93;35.13;;;-3274.30;63.40;;;;;;5107248;28;20020;-87
2022/03/03 05:55:52;;;;;;;99.73;35.93;;;-3274.30;63.50;;;;;;5105107;28;20435;-88
2022/03/03 05:58:20;;;;;;;93.23;35.50;;;-3274.30;63.60;;;;;;5107347;28;20020;-88
2022/03/03 06:00:48;;;;;;;94.90;36.47;;;-3274.30;63.70;;;;;;5102338;28;20020;-87
2022/03/03 06:03:16;;;;;;;111.93;40.33;;;-3274.30;63.70;;;;;;5105244;28;20074;-88
2022/03/03 06:05:48;;;;;;;101.13;37.43;;;-3274.30;63.80;;;;;;5103419;28;20035;-87
2022/03/03 06:08:20;;;;;;;110.83;38.43;;;-3274.30;64.00;;;;;;5105052;28;20034;-88
2022/03/03 06:10:53;;;;;;;110.83;39.63;;;-3274.40;64.00;;;;;;5098953;28;20161;-87
2022/03/03 06:13:23;;;;;;;111.80;38.40;;;-3274.40;64.10;;;;;;5108657;28;20031;-86
2022/03/03 06:15:49;;;;;;;141.43;45.63;;;-3274.40;64.10;;;;;;5104768;28;20028;-87
2022/03/03 06:18:14;;;;;;;123.43;45.47;;;-3274.50;64.20;;;;;;5105802;28;20024;-86
2022/03/03 06:20:43;;;;;;;;;;;-3274.60;64.20;;;;;;5123393;27;20439;-87
2022/03/03 06:23:08;;;;;;;93.73;36.60;;;-3274.60;64.20;;;;;;5102903;28;20410;-87
2022/03/03 06:25:34;;;;;;;;;;;-3274.70;63.90;;;;;;5125630;27;20032;-86
2022/03/03 06:28:00;;;;;;;99.50;33.53;;;-3274.70;63.90;;;;;;5108097;28;19915;-87
2022/03/03 06:30:26;;;;;;;102.57;35.72;;;-3274.80;63.60;;;;;;5105661;28;20384;-92
2022/03/03 06:32:52;;;;;;;109.47;38.60;;;-3274.80;63.60;;;;;;5111333;28;20054;-91
2022/03/03 06:35:18;;;;;;;126.70;40.17;;;-3274.90;63.70;;;;;;5129986;27;20021;-92
2022/03/03 06:37:43;;;;;;;;;;;-3275.00;63.70;;;;;;5126946;27;20523;-92
2022/03/03 06:40:09;;;;;;;80.83;28.90;;;-3275.00;63.70;;;;;;5112297;28;20006;-90
2022/03/03 06:42:35;;;;;;;;;;;-3275.10;63.60;;;;;;5107720;28;20032;-91
2022/03/03 06:45:00;;;;;;;105.57;34.97;;;-3275.20;63.60;;;;;;5108381;28;19912;-91
2022/03/03 06:47:26;;;;;;;;;;;-3275.20;63.30;;;;;;5122388;27;20047;-92
2022/03/03 06:49:52;;;;;;;94.17;32.43;;;-3275.20;63.50;;;;;;5110814;28;19891;-92
2022/03/03 06:52:23;;;;;;;;;;;-3275.30;63.40;;;;;;5123527;27;20028;-92
2022/03/03 06:54:51;;;;;;;78.17;27.93;;;-3275.40;63.40;;;;;;5105523;28;19912;-92
2022/03/03 06:57:20;;;;;;;90.73;32.23;;;-3275.50;63.10;;;;;;5100244;28;20031;-91
2022/03/03 06:59:46;;;;;;;81.53;31.17;;;-3275.50;63.30;;;;;;5107097;28;20532;-89
2022/03/03 07:02:13;;;;;;;90.80;32.40;;;-3275.60;63.30;;;;;;5093567;28;20108;-88
2022/03/03 07:04:40;;;;;;;71.27;28.60;;;-3275.70;63.20;;;;;;5105198;28;20032;-86
2022/03/03 07:07:05;;;;;;;94.03;33.00;;;-3275.70;63.10;;;;;;5115189;27;20024;-89
2022/03/03 07:09:31;;;;;;;;;;;-3275.80;63.00;;;;;;5114063;28;20079;-86
2022/03/03 07:11:59;;;;;;;91.77;31.53;;;-3276.00;63.10;;;;;;5111972;28;19985;-86
2022/03/03 07:14:25;;;;;;;68.80;25.73;;;-3276.10;62.70;;;;;;5105745;28;20024;-87
2022/03/03 07:17:01;;;;;;;77.70;30.63;;;-3276.20;62.60;;;;;;5121016;27;20027;-86
2022/03/03 07:19:39;;;;;;;94.77;34.27;;;-3276.20;62.60;;;;;;5095847;28;20020;-85
2022/03/03 07:22:32;;;;;;;97.83;34.47;;;-3276.30;62.50;;;;;;5110978;28;20035;-86
2022/03/03 07:25:11;;;;;;;110.87;37.83;;;-3276.40;62.40;;;;;;5105259;28;20024;-85
2022/03/03 07:27:45;;;;;;;81.73;32.00;;;-3276.50;62.30;;;;;;5103325;28;20020;-86
2022/03/03 07:30:13;;;;;;;93.33;32.00;;;-3276.70;62.20;;;;;;5102490;28;20024;-86
2022/03/03 07:33:04;;;;;;;95.43;32.83;;;-3276.70;62.10;;;;;;5115159;27;20039;-85
2022/03/03 07:35:31;;;;;;;82.80;33.07;;;-3276.70;61.90;;;;;;5108326;28;20104;-86
2022/03/03 07:38:06;;;;;;;95.57;32.80;;;0.00;61.80;;;;;;5098528;28;20024;-86
2022/03/03 07:40:32;;;;;;;98.10;34.53;;;0.00;61.80;;;;;;5107223;28;20069;-87
2022/03/03 07:42:59;;;;;;;95.80;37.20;;;0.00;61.70;;;;;;5087366;28;20153;-86
2022/03/03 07:45:25;;;;;;;110.93;38.90;;;0.00;61.80;;;;;;5108878;28;20034;-86
2022/03/03 07:47:56;;;;;;;96.23;37.43;;;0.00;61.80;;;;;;5120696;27;20061;-87
2022/03/03 07:50:24;;;;;;;97.00;39.13;;;0.00;61.90;;;;;;5103302;28;20404;-86
2022/03/03 07:52:50;;;;;;;95.97;38.90;;;0.10;61.90;;;;;;5102484;28;20107;-86
2022/03/03 07:55:16;;;;;;;109.70;40.63;;;0.30;61.80;;;;;;5097150;28;20016;-85
2022/03/03 07:57:57;;;;;;;106.43;37.67;;;0.30;61.70;;;;;;5108104;28;20016;-87
2022/03/03 08:00:23;;;;;;;95.83;35.80;;;0.50;61.60;;;;;;5103953;28;20418;-86
2022/03/03 08:02:50;;;;;;;;;;;0.60;61.50;;;;;;5103109;28;20023;-85
2022/03/03 08:05:16;;;;;;;94.53;34.38;;;0.80;61.40;;;;;;5105495;28;19908;-85
2022/03/03 08:07:45;;;;;;;93.75;36.53;;;0.80;61.00;;;;;;5112581;27;20032;-87
2022/03/03 08:10:13;;;;;;;93.00;35.87;;;0.90;60.90;;;;;;5106573;28;20027;-87
2022/03/03 08:12:40;;;;;;;98.70;36.27;;;0.90;60.90;;;;;;5093372;28;20097;-85
2022/03/03 08:15:08;;;;;;;97.33;38.20;;;1.00;60.90;;;;;;5095392;28;20044;-85
2022/03/03 08:17:35;;;;;;;107.50;39.13;;;1.00;60.90;;;;;;5109721;28;20027;-86
2022/03/03 08:20:03;;;;;;;101.73;39.10;;;1.10;60.90;;;;;;5106579;28;20058;-86
2022/03/03 08:22:29;;;;;;;129.80;44.40;;;1.20;60.70;;;;;;5113002;28;20019;-86
2022/03/03 08:25:04;;;;;;;;;;;1.40;60.70;;;;;;5119964;27;20125;-86
2022/03/03 08:27:29;;;;;;;110.33;40.57;;;1.50;60.60;;;;;;5094351;28;19908;-86
2022/03/03 08:29:56;;;;;;;107.90;42.53;;;1.70;60.20;;;;;;5110478;28;20476;-86
2022/03/03 08:32:26;;;;;;;109.87;41.73;;;1.80;60.20;;;;;;5131296;28;20057;-86
2022/03/03 08:35:07;;;;;;;123.27;44.93;;;1.90;60.10;;;;;;5114810;28;20016;-85
2022/03/03 08:37:39;;;;;;;121.83;41.00;;;2.00;60.00;;;;;;5113998;28;20015;-85
2022/03/03 08:40:07;;;;;;;113.03;41.50;;;2.10;59.90;;;;;;5114496;28;20008;-85
2022/03/03 08:42:42;;;;;;;108.50;43.57;;;2.10;59.80;;;;;;5113478;28;20023;-84
2022/03/03 08:45:10;;;;;;;107.50;41.67;;;2.30;59.70;;;;;;5113672;28;20106;-85
2022/03/03 08:47:42;;;;;;;107.37;41.23;;;2.40;59.70;;;;;;5101172;28;20097;-86
2022/03/03 08:50:13;;;;;;;107.13;39.00;;;2.50;59.50;;;;;;5104496;28;20031;-85
2022/03/03 08:52:40;;;;;;;112.33;40.17;;;2.70;59.30;;;;;;5104794;28;20028;-86
2022/03/03 08:55:09;;;;;;;97.83;36.00;;;2.80;59.00;;;;;;5099957;28;20027;-86
2022/03/03 08:57:38;;;;;;;96.33;37.57;;;3.00;58.70;;;;;;5103630;28;20495;-87
2022/03/03 09:00:06;;;;;;;101.07;36.43;;;3.20;58.40;;;;;;5104869;28;20020;-87
2022/03/03 09:02:32;;;;;;;96.90;38.07;;;3.40;58.00;;;;;;5100289;28;20035;-88
2022/03/03 09:04:57;;;;;;;99.75;38.10;;;3.60;57.70;;;;;;5104619;28;20399;-87
2022/03/03 09:07:23;;;;;;;86.72;35.65;;;3.80;57.40;;;;;;5132877;27;20020;-87
2022/03/03 09:09:49;;;;;;;82.63;33.83;;;3.90;57.00;;;;;;5125996;27;20035;-87
2022/03/03 09:12:14;;;;;;;81.53;32.35;;;4.10;56.60;;;;;;5128635;27;20473;-87
2022/03/03 09:14:40;;;;;;;78.78;30.75;;;4.20;56.30;;;;;;5105092;28;20472;-87
2022/03/03 09:17:06;;;;;;;65.97;28.95;;;4.30;56.10;;;;;;5119415;27;20016;-87
2022/03/03 09:19:31;;;;;;;65.18;23.45;;;4.50;55.60;;;;;;5125461;27;20055;-88
2022/03/03 09:21:57;;;;;;;66.70;26.48;;;4.60;55.30;;;;;;5100071;28;20055;-87
2022/03/03 09:24:23;;;;;;;68.75;29.73;;;4.80;54.80;;;;;;5108077;28;20027;-86
2022/03/03 09:26:51;;;;;;;71.37;30.57;;;4.90;54.30;;;;;;5123649;27;20038;-87
2022/03/03 09:29:17;;;;;;;62.80;28.17;;;5.10;53.80;;;;;;5104082;28;20050;-86
2022/03/03 09:31:44;;;;;;;69.00;29.23;;;5.20;53.40;;;;;;5108052;28;20035;-86
2022/03/03 09:34:10;;;;;;;74.60;29.93;;;5.30;53.00;;;;;;5105359;28;20031;-86
2022/03/03 09:36:35;;;;;;;81.57;33.35;;;5.30;52.60;;;;;;5102629;28;20028;-86
2022/03/03 09:39:01;;;;;;;78.75;32.20;;;5.50;52.50;;;;;;5122513;27;20107;-85
2022/03/03 09:41:27;;;;;;;81.53;30.08;;;5.60;52.10;;;;;;5115232;27;20366;-87
2022/03/03 09:43:56;;;;;;;63.50;27.17;;;5.80;51.80;;;;;;5120521;27;20039;-86
2022/03/03 09:46:22;;;;;;;42.73;19.87;;;6.10;51.10;;;;;;5108909;28;20024;-87
2022/03/03 09:48:48;;;;;;;39.37;16.93;;;6.30;50.50;;;;;;5107357;28;20020;-87
2022/03/03 09:51:14;;;;;;;47.47;19.65;;;6.60;49.00;;;;;;5120247;27;20095;-88
2022/03/03 09:53:40;;;;;;;42.28;19.02;;;6.80;48.60;;;;;;5129483;27;20015;-86
2022/03/03 09:56:06;;;;;;;42.90;19.00;;;7.10;47.60;;;;;;5100151;28;20027;-85
2022/03/03 09:58:31;;;;;;;42.50;18.58;;;7.30;47.20;;;;;;5118624;27;20548;-87
2022/03/03 10:00:57;;;;;;;43.28;19.38;;;7.50;46.10;;;;;;5121116;27;20020;-87
2022/03/03 10:03:23;;;;;;;46.38;20.85;;;7.70;45.70;;;;;;5114054;27;20463;-87
2022/03/03 10:05:51;;;;;;;43.10;19.33;;;7.90;44.90;;;;;;5127119;27;20032;-86
2022/03/03 10:08:20;;;;;;;48.53;20.73;;;7.90;44.50;;;;;;5098670;28;20043;-87
2022/03/03 10:10:49;;;;;;;37.10;16.53;;;8.10;44.40;;;;;;5109861;28;20031;-88
2022/03/03 10:13:16;;;;;;;45.80;19.77;;;8.20;43.80;;;;;;5101223;28;20028;-87
2022/03/03 10:15:50;;;;;;;45.53;21.27;;;8.10;43.40;;;;;;5096857;28;20115;-87
2022/03/03 10:18:19;;;;;;;49.83;21.43;;;8.10;43.50;;;;;;5104338;28;20065;-87
2022/03/03 10:20:44;;;;;;;44.50;20.63;;;8.10;43.50;;;;;;5106833;28;20035;-88
2022/03/03 10:23:10;;;;;;;44.15;19.38;;;8.30;41.90;;;;;;5107615;28;20024;-86
2022/03/03 10:25:42;;;;;;;36.83;17.35;;;8.90;41.10;;;;;;5120539;27;20028;-86
2022/03/03 10:28:28;;;;;;;37.73;17.20;;;9.70;39.60;;;;;;5104420;28;20035;-86
2022/03/03 10:31:05;;;;;;;38.50;18.15;;;10.80;37.90;;;;;;5113648;27;20020;-87
2022/03/03 10:33:33;;;;;;;32.47;16.77;;;11.90;36.50;;;;;;5102802;28;20073;-89
2022/03/03 10:36:12;;;;;;;29.35;16.52;;;13.00;35.00;;;;;;5114014;28;20134;-86
2022/03/03 10:38:55;;;;;;;26.95;14.63;;;14.20;33.50;;;;;;5102772;28;20036;-87
2022/03/03 10:41:32;;;;;;;29.75;16.75;;;15.40;32.10;;;;;;5107533;28;20058;-86
2022/03/03 10:44:00;;;;;;;29.75;16.70;;;16.50;31.00;;;;;;5093277;28;20016;-87
2022/03/03 10:46:25;;;;;;;27.05;15.70;;;17.50;30.20;;;;;;5100259;28;20028;-87
2022/03/03 10:48:51;;;;;;;28.05;15.98;;;18.60;28.90;;;;;;5120022;27;20376;-86
2022/03/03 10:51:19;;;;;;;27.02;15.05;;;19.60;27.70;;;;;;5103015;28;20024;-84
2022/03/03 10:53:45;;;;;;;25.30;14.07;;;20.40;26.60;;;;;;5126509;27;20020;-86
2022/03/03 10:56:15;;;;;;;27.35;14.85;;;21.00;25.60;;;;;;5098719;28;20511;-87
2022/03/03 10:58:52;;;;;;;22.23;14.10;;;21.50;24.50;;;;;;5109563;28;20027;-86
2022/03/03 11:01:21;;;;;;;27.02;15.77;;;21.90;23.30;;;;;;5110215;28;20031;-87
2022/03/03 11:03:50;;;;;;;26.75;15.52;;;22.60;22.90;;;;;;5120703;27;20103;-87
2022/03/03 11:06:21;;;;;;;24.48;15.68;;;23.00;22.50;;;;;;5100882;28;20114;-87
2022/03/03 11:08:49;;;;;;;23.15;14.63;;;23.50;21.90;;;;;;5096701;28;20476;-87
2022/03/03 11:11:14;;;;;;;21.55;13.85;;;24.00;21.00;;;;;;5096248;28;20044;-89
2022/03/03 11:13:41;;;;;;;23.10;14.55;;;24.10;19.90;;;;;;5096451;28;20362;-89
2022/03/03 11:16:07;;;;;;;19.70;12.60;;;24.00;19.70;;;;;;5096453;28;20024;-85
2022/03/03 11:18:33;;;;;;;23.50;14.45;;;23.80;18.50;;;;;;5095990;28;20112;-87
2022/03/03 11:21:00;;;;;;;19.65;14.23;;;23.20;19.20;;;;;;5104530;28;20028;-86
2022/03/03 11:23:37;;;;;;;24.25;16.00;;;23.00;19.60;;;;;;5094901;28;20030;-87
2022/03/03 11:26:04;;;;;;;25.40;15.43;;;23.10;19.20;;;;;;5091167;28;20384;-86
2022/03/03 11:28:37;;;;;;;24.42;15.48;;;23.30;19.40;;;;;;5122834;27;20020;-86
2022/03/03 11:31:30;;;;;;;24.17;16.08;;;23.60;18.70;;;;;;5113694;28;20027;-87
2022/03/03 11:34:17;;;;;;;24.55;16.10;;;24.10;18.70;;;;;;5103875;28;20078;-87
2022/03/03 11:36:46;;;;;;;23.88;15.10;;;24.60;18.30;;;;;;5104606;28;20036;-88
2022/03/03 11:39:37;;;;;;;22.42;14.25;;;24.70;18.00;;;;;;5103210;28;20121;-87
2022/03/03 11:42:49;;;;;;;25.45;14.95;;;24.90;17.40;;;;;;5111348;28;20038;-87
2022/03/03 11:45:17;;;;;;;24.17;15.27;;;24.50;17.80;;;;;;5061512;28;20044;-88
2022/03/03 11:47:48;;;;;;;22.10;14.38;;;24.60;17.70;;;;;;5100370;28;20490;-87
2022/03/03 11:50:16;;;;;;;20.42;14.00;;;24.40;17.60;;;;;;5074168;28;20097;-86
2022/03/03 11:53:14;;;;;;;23.42;15.10;;;24.00;17.60;;;;;;5096789;28;20036;-86
2022/03/03 11:55:43;;;;;;;23.45;14.15;;;23.90;17.70;;;;;;5098295;28;20024;-87
2022/03/03 11:58:11;;;;;;;24.08;14.85;;;23.60;17.80;;;;;;5097810;28;20544;-87
2022/03/03 12:00:47;;;;;;;21.55;14.23;;;23.20;17.90;;;;;;5115904;28;20016;-87
2022/03/03 12:03:15;;;;;;;25.15;15.82;;;22.90;18.20;;;;;;5106443;28;20381;-87
2022/03/03 12:05:50;;;;;;;25.88;16.42;;;22.60;18.60;;;;;;5114076;28;20020;-88
2022/03/03 12:08:18;;;;;;;27.35;16.17;;;22.30;18.40;;;;;;5105684;28;20376;-88
2022/03/03 12:11:15;;;;;;;22.23;14.93;;;21.70;18.50;;;;;;5097623;28;20491;-88
2022/03/03 12:13:41;;;;;;;20.90;14.05;;;21.50;18.70;;;;;;5042905;28;20018;-87
2022/03/03 12:16:13;;;;;;;26.10;15.68;;;21.30;19.00;;;;;;5073284;28;20055;-87
2022/03/03 12:18:42;;;;;;;23.70;14.18;;;20.70;19.10;;;;;;5079555;28;20031;-87
2022/03/03 12:21:40;;;;;;;27.42;15.30;;;20.20;19.40;;;;;;5081016;28;20062;-88
2022/03/03 12:24:14;;;;;;;25.80;13.85;;;19.50;19.90;;;;;;5076920;28;20016;-87
2022/03/03 12:26:55;;;;;;;27.60;14.80;;;18.90;20.20;;;;;;5076500;28;20357;-87
2022/03/03 12:29:52;;;;;;;23.63;12.77;;;18.40;20.90;;;;;;5084441;28;20028;-87